Tropical Cyclones
[Index]
Main Index Home Page Stock Weather Photos Extreme Storms Discussion Storm News and Storm Chasing Reports Tropical Cyclones / Hurricanes / Typhoons Weather Data and Links Wild Fires / Bushfires Weather Observation Techniques Weather Picture Catalogue Tornado Pictures and Reports Stock Video Footage and DVDs for sale
Season 2011-2012 Tropical Cyclone HILWA Track Map
Season 2011-2012 Summaries (Operational Data): [AU] [SIO] [SPAC] [SH]
<<- Previous TC | 2011-2012 Season | Next TC ->>

click for intensity scale information  Lat/long Grid: Show Hide

 Date Labels: Show Hide

Operational Tropical Cyclone Data : JTWC Advisories

Name: HILWA
Number: 1213

11 Feb 2012 06:00 UTC to 24 Feb 2012 06:00 UTC

    date/time    lat    long     hPa   cat  kts
2012-02-11 06   11.2   108.9    1010         15          
2012-02-11 12   11.3   107.7    1010         15          
2012-02-11 18   11.4   106.3    1010         15          
2012-02-12 00   11.5   104.7    1010         15          
2012-02-12 06   11.7   103.0    1010         15          
2012-02-12 12   12.0   101.3    1010         15          
2012-02-12 18   12.2    99.9    1007         20          
2012-02-13 00   12.2    98.2    1004         25          
2012-02-13 06   12.1    97.0    1000         30          
2012-02-13 12   12.2    95.8    1000         30          
2012-02-13 18   12.2    94.5    1000         30          
2012-02-14 00   12.8    92.5    1000         30          
2012-02-14 06   13.6    90.7     993    1    40          
2012-02-14 12   14.1    89.4     993    1    40          
2012-02-14 18   14.2    87.8     993    1    40          
2012-02-15 00   14.2    86.4     993    1    40          
2012-02-15 06   14.3    85.2     993    1    40          
2012-02-15 12   14.8    84.2     993    1    40          
2012-02-15 18   15.0    83.5     989    1    45          
2012-02-16 00   14.9    82.6     989    1    45          
2012-02-16 06   15.0    81.8     989    1    45          
2012-02-16 12   15.1    81.4     989    1    45          
2012-02-16 18   15.1    81.2     996    1    35          
2012-02-17 00   15.1    81.0     996    1    35          
2012-02-17 06   15.2    80.6     996    1    35          
2012-02-17 12   15.6    80.0     996    1    35          
2012-02-17 18   16.5    79.1     996    1    35          
2012-02-18 00   17.1    78.1     996    1    35          
2012-02-18 06   17.6    77.1     996    1    35          
2012-02-18 12   17.7    75.9     996    1    35          
2012-02-18 18   17.8    74.8     997    1    35          
2012-02-19 00   18.1    73.1     996    1    35          
2012-02-19 06   18.6    71.2     996    1    35          
2012-02-19 12   18.8    70.0     996    1    35          
2012-02-19 18   19.2    68.0    1000         30          
2012-02-20 00   19.1    66.8    1004         25          
2012-02-20 06   18.9    66.0     996    1    35          
2012-02-20 12   18.8    65.4     996    1    35          
2012-02-20 18   19.0    64.6     996    1    35          
2012-02-21 00   19.4    64.5     993    1    40          
2012-02-21 06   19.7    64.0     993    1    40          
2012-02-21 12   20.1    63.8     993    1    40          
2012-02-21 18   20.6    63.6     993    1    40          
2012-02-22 00   21.4    63.5     996    1    35          
2012-02-22 06   22.5    63.6     996    1    35          
2012-02-22 12   23.5    63.5     995    1    35          
2012-02-22 18   25.3    63.5     995    1    35          
2012-02-23 00   27.9    63.7     993    1    40          
2012-02-23 06   29.7    64.1     993    1    40          
2012-02-23 12   30.2    61.7                             
2012-02-23 18   32.5    62.2                             
2012-02-24 00   36.0    61.8                             
2012-02-24 06   40.1    61.9                             
Winds are 10-min average.

Tropical cyclone tracks developed by Michael Bath using operational warnings and advisories and Google Maps.


[Australian Severe Weather index] [Copyright Notice] [Email Contacts] [Search This Site] [Privacy Policy]
Document: tropical_cyclone_hilwa.htm Updated: 2 May 2017